Time;durP1;ratioP1;P1;durP2;ratioP2;P2;SDS_P1;SDS_P2;PMS_P1;PMS_P2;Temp;Humidity;BMP_temperature;BMP_pressure;BME280_temperature;BME280_humidity;BME280_pressure;Samples;Min_cycle;Max_cycle;Signal;HPM_P1;HPM_P2
2022/04/27 00:01:41;;;;;;;6.95;4.80;;;;;;;;;;4993622;28;20050;-70
2022/04/27 00:04:08;;;;;;;7.93;4.55;;;;;;;;;;4993847;28;20133;-70
2022/04/27 00:06:35;;;;;;;8.60;4.68;;;;;;;;;;4994002;28;20053;-70
2022/04/27 00:09:02;;;;;;;7.32;4.38;;;;;;;;;;4993453;28;20172;-70
2022/04/27 00:11:30;;;;;;;7.95;4.60;;;;;;;;;;4993323;28;20061;-70
2022/04/27 00:13:58;;;;;;;8.45;5.18;;;;;;;;;;4993351;28;20088;-70
2022/04/27 00:16:25;;;;;;;7.07;4.90;;;;;;;;;;4993488;28;20076;-69
2022/04/27 00:18:52;;;;;;;7.22;4.82;;;;;;;;;;4993022;28;20050;-69
2022/04/27 00:21:19;;;;;;;7.80;4.70;;;;;;;;;;4993445;28;20146;-68
2022/04/27 00:23:46;;;;;;;7.82;4.72;;;;;;;;;;4992712;28;20058;-70
2022/04/27 00:26:13;;;;;;;7.20;5.20;;;;;;;;;;4992350;28;20504;-69
2022/04/27 00:28:42;;;;;;;7.53;4.60;;;;;;;;;;4992808;28;20149;-69
2022/04/27 00:31:09;;;;;;;7.43;4.63;;;;;;;;;;4992677;28;20051;-69
2022/04/27 00:33:36;;;;;;;7.75;5.10;;;;;;;;;;4992660;28;20581;-69
2022/04/27 00:36:03;;;;;;;8.52;4.93;;;;;;;;;;4993202;28;20411;-69
2022/04/27 00:38:30;;;;;;;7.57;4.35;;;;;;;;;;4992224;28;20110;-69
2022/04/27 00:40:57;;;;;;;8.35;5.13;;;;;;;;;;4993063;28;20145;-69
2022/04/27 00:43:38;;;;;;;8.25;4.60;;;;;;;;;;4992464;28;20050;-69
2022/04/27 00:46:07;;;;;;;7.90;4.28;;;;;;;;;;4992324;28;20047;-69
2022/04/27 00:48:35;;;;;;;7.15;4.40;;;;;;;;;;4992307;28;20072;-69
2022/04/27 00:51:03;;;;;;;7.30;4.45;;;;;;;;;;4992115;28;20510;-70
2022/04/27 00:53:30;;;;;;;7.20;4.20;;;;;;;;;;4992194;28;20063;-68
2022/04/27 00:55:58;;;;;;;8.52;4.93;;;;;;;;;;4992571;28;20446;-69
2022/04/27 00:58:26;;;;;;;8.10;5.10;;;;;;;;;;4992530;28;20047;-69
2022/04/27 01:00:53;;;;;;;8.73;5.93;;;;;;;;;;4993602;28;20056;-69
2022/04/27 01:03:22;;;;;;;9.68;5.85;;;;;;;;;;4996061;28;20133;-69
2022/04/27 01:05:49;;;;;;;7.32;4.95;;;;;;;;;;4995925;28;20130;-69
2022/04/27 01:08:17;;;;;;;9.35;5.82;;;;;;;;;;4995633;28;20133;-68
2022/04/27 01:10:45;;;;;;;9.02;5.90;;;;;;;;;;4995903;28;20066;-69
2022/04/27 01:13:12;;;;;;;11.05;6.57;;;;;;;;;;4991183;28;20108;-69
2022/04/27 01:15:39;;;;;;;8.23;5.38;;;;;;;;;;4975770;28;20046;-69
2022/04/27 01:18:08;;;;;;;9.50;6.07;;;;;;;;;;4976319;28;20054;-69
2022/04/27 01:20:38;;;;;;;8.85;5.85;;;;;;;;;;4976416;28;20137;-69
2022/04/27 01:23:06;;;;;;;8.80;5.57;;;;;;;;;;4977064;28;20101;-69
2022/04/27 01:25:48;;;;;;;10.23;6.18;;;;;;;;;;4976432;28;20058;-69
2022/04/27 01:28:16;;;;;;;8.25;6.00;;;;;;;;;;5040817;22;20502;-78
2022/04/27 01:30:44;;;;;;;10.48;6.03;;;;;;;;;;5056647;28;20045;-77
2022/04/27 01:33:11;;;;;;;9.55;6.32;;;;;;;;;;5057531;28;20479;-78
2022/04/27 01:35:40;;;;;;;9.85;6.80;;;;;;;;;;5057363;28;20049;-78
2022/04/27 01:38:07;;;;;;;8.95;6.18;;;;;;;;;;5056862;28;20045;-78
2022/04/27 01:40:34;;;;;;;10.35;6.65;;;;;;;;;;5057396;28;20048;-78
2022/04/27 01:43:01;;;;;;;10.85;6.55;;;;;;;;;;5057506;28;20091;-78
2022/04/27 01:45:28;;;;;;;9.68;6.90;;;;;;;;;;5056858;28;20087;-78
2022/04/27 01:47:54;;;;;;;11.48;7.95;;;;;;;;;;5055809;28;20418;-78
2022/04/27 01:50:21;;;;;;;10.18;6.95;;;;;;;;;;5057199;28;20041;-79
2022/04/27 01:55:34;;;;;;;11.30;7.22;;;;;;;;;;5056701;28;20055;-78
2022/04/27 01:58:00;;;;;;;11.05;7.35;;;;;;;;;;5057104;28;20462;-78
2022/04/27 02:00:27;;;;;;;11.20;7.05;;;;;;;;;;5056631;28;20049;-78
2022/04/27 02:02:54;;;;;;;11.02;7.20;;;;;;;;;;5057096;28;20110;-77
2022/04/27 02:05:21;;;;;;;11.70;7.90;;;;;;;;;;5060259;28;20055;-76
2022/04/27 02:07:49;;;;;;;12.10;7.82;;;;;;;;;;5063117;28;20099;-77
2022/04/27 02:10:16;;;;;;;11.70;7.47;;;;;;;;;;5060594;28;20118;-78
2022/04/27 02:12:43;;;;;;;13.00;8.63;;;;;;;;;;5056013;28;20075;-77
2022/04/27 02:15:11;;;;;;;14.30;8.75;;;;;;;;;;5056287;28;20511;-77
2022/04/27 02:17:37;;;;;;;13.05;8.48;;;;;;;;;;5058499;28;20053;-77
2022/04/27 02:20:05;;;;;;;13.65;8.65;;;;;;;;;;5058896;28;20045;-77
2022/04/27 02:22:33;;;;;;;14.80;9.00;;;;;;;;;;5059511;28;20131;-77
2022/04/27 02:25:02;;;;;;;12.18;8.70;;;;;;;;;;5055284;28;20123;-76
2022/04/27 02:27:29;;;;;;;14.20;9.43;;;;;;;;;;5054402;28;20503;-77
2022/04/27 02:29:56;;;;;;;15.20;9.10;;;;;;;;;;5054943;28;20424;-78
2022/04/27 02:32:23;;;;;;;13.50;8.38;;;;;;;;;;5055769;28;20102;-78
2022/04/27 02:34:51;;;;;;;13.75;8.48;;;;;;;;;;5055759;28;20057;-78
2022/04/27 02:37:18;;;;;;;14.07;9.27;;;;;;;;;;5056507;28;20045;-77
2022/04/27 02:39:45;;;;;;;11.73;8.07;;;;;;;;;;5055937;28;20049;-78
2022/04/27 02:42:13;;;;;;;13.70;8.75;;;;;;;;;;5054841;28;20075;-77
2022/04/27 02:44:40;;;;;;;14.60;9.20;;;;;;;;;;5054734;28;20049;-78
2022/04/27 02:47:07;;;;;;;14.48;9.02;;;;;;;;;;5054457;28;20052;-77
2022/04/27 02:52:18;;;;;;;13.95;9.00;;;;;;;;;;5054744;28;20055;-77
2022/04/27 02:54:44;;;;;;;14.05;9.10;;;;;;;;;;5054463;28;20052;-79
2022/04/27 02:57:13;;;;;;;14.60;9.20;;;;;;;;;;5054495;28;20098;-78
2022/04/27 02:59:41;;;;;;;15.18;9.65;;;;;;;;;;5053845;28;20099;-77
2022/04/27 03:02:08;;;;;;;14.40;9.30;;;;;;;;;;5054686;28;20049;-77
2022/04/27 03:04:35;;;;;;;14.55;9.55;;;;;;;;;;5054336;28;20075;-77
2022/04/27 03:07:02;;;;;;;14.35;9.05;;;;;;;;;;5054635;28;20514;-78
2022/04/27 03:09:29;;;;;;;14.73;9.75;;;;;;;;;;5055218;28;20056;-77
2022/04/27 03:11:56;;;;;;;16.75;10.18;;;;;;;;;;5055058;28;20045;-78
2022/04/27 03:14:24;;;;;;;15.70;10.60;;;;;;;;;;5055272;28;20067;-78
2022/04/27 03:16:51;;;;;;;15.85;9.98;;;;;;;;;;5054664;28;20048;-78
2022/04/27 03:19:18;;;;;;;15.15;9.65;;;;;;;;;;5054831;28;20396;-77
2022/04/27 03:21:44;;;;;;;15.93;9.80;;;;;;;;;;5054712;28;20560;-78
2022/04/27 03:24:11;;;;;;;15.32;9.88;;;;;;;;;;5052694;28;20052;-78
2022/04/27 03:26:38;;;;;;;16.83;9.70;;;;;;;;;;5054810;28;20057;-78
2022/04/27 03:29:05;;;;;;;17.77;10.15;;;;;;;;;;5053992;28;20136;-77
2022/04/27 03:31:33;;;;;;;19.75;11.25;;;;;;;;;;5054620;28;20049;-78
2022/04/27 03:34:00;;;;;;;18.83;11.07;;;;;;;;;;5055925;28;20045;-78
2022/04/27 03:36:27;;;;;;;18.58;11.65;;;;;;;;;;5054522;28;20119;-78
2022/04/27 03:38:54;;;;;;;17.98;10.43;;;;;;;;;;5054671;28;20041;-78
2022/04/27 03:41:22;;;;;;;22.33;13.52;;;;;;;;;;5053465;28;20595;-78
2022/04/27 03:43:49;;;;;;;18.45;11.30;;;;;;;;;;5053770;28;20045;-78
2022/04/27 03:46:16;;;;;;;17.73;11.57;;;;;;;;;;5053946;28;20575;-77
2022/04/27 03:48:44;;;;;;;19.75;11.27;;;;;;;;;;5055658;28;20107;-78
2022/04/27 03:51:11;;;;;;;20.95;12.00;;;;;;;;;;5054914;28;20041;-78
2022/04/27 03:53:37;;;;;;;19.40;11.82;;;;;;;;;;5054882;28;20106;-78
2022/04/27 03:56:05;;;;;;;19.80;11.85;;;;;;;;;;5054869;28;20079;-79
2022/04/27 03:58:32;;;;;;;22.73;13.27;;;;;;;;;;5054648;28;20072;-78
2022/04/27 04:00:59;;;;;;;20.50;12.07;;;;;;;;;;5054751;28;20053;-78
2022/04/27 04:03:26;;;;;;;19.98;12.20;;;;;;;;;;5054855;28;20045;-77
2022/04/27 04:05:54;;;;;;;19.48;11.55;;;;;;;;;;5054736;28;20099;-78
2022/04/27 04:08:21;;;;;;;24.45;13.48;;;;;;;;;;5053931;28;20049;-77
2022/04/27 04:10:48;;;;;;;24.00;14.65;;;;;;;;;;5052698;28;20500;-77
2022/04/27 04:13:14;;;;;;;22.10;13.43;;;;;;;;;;5052847;28;20507;-78
2022/04/27 04:15:41;;;;;;;23.20;13.65;;;;;;;;;;5052384;28;20095;-77
2022/04/27 04:18:08;;;;;;;24.52;14.73;;;;;;;;;;5054008;28;20095;-78
2022/04/27 04:20:35;;;;;;;22.20;12.80;;;;;;;;;;5054001;28;20096;-78
2022/04/27 04:23:04;;;;;;;20.65;12.02;;;;;;;;;;5054537;28;20369;-78
2022/04/27 04:28:34;;;;;;;19.02;12.13;;;;;;;;;;5052774;28;20056;-77
2022/04/27 04:31:03;;;;;;;21.10;12.25;;;;;;;;;;5053305;28;20044;-77
2022/04/27 04:33:31;;;;;;;23.73;13.90;;;;;;;;;;5053702;28;20045;-78
2022/04/27 04:35:58;;;;;;;22.85;13.15;;;;;;;;;;5056239;28;20049;-78
2022/04/27 04:38:26;;;;;;;25.05;13.02;;;;;;;;;;5057422;28;20049;-78
2022/04/27 04:40:53;;;;;;;23.05;13.07;;;;;;;;;;5058041;28;20474;-77
2022/04/27 04:43:20;;;;;;;25.02;13.70;;;;;;;;;;5059270;28;20041;-78
2022/04/27 04:45:47;;;;;;;23.90;14.85;;;;;;;;;;5052848;28;20057;-78
2022/04/27 04:48:14;;;;;;;23.75;13.65;;;;;;;;;;5040185;28;20068;-80
2022/04/27 04:50:41;;;;;;;23.05;13.20;;;;;;;;;;5038911;28;20049;-78
2022/04/27 04:53:08;;;;;;;24.58;14.63;;;;;;;;;;5039533;28;20051;-75
2022/04/27 04:55:36;;;;;;;24.35;13.57;;;;;;;;;;5039874;28;20115;-78
2022/04/27 04:58:03;;;;;;;22.83;13.38;;;;;;;;;;5039062;28;20045;-77
2022/04/27 05:00:30;;;;;;;22.25;12.80;;;;;;;;;;5038822;28;20046;-78
2022/04/27 05:02:56;;;;;;;23.40;13.43;;;;;;;;;;5039216;28;20080;-78
2022/04/27 05:05:23;;;;;;;23.25;13.45;;;;;;;;;;5039091;28;20045;-78
2022/04/27 05:07:50;;;;;;;22.15;12.38;;;;;;;;;;5037961;28;20103;-79
2022/04/27 05:10:17;;;;;;;22.05;12.98;;;;;;;;;;5035871;28;20046;-79
2022/04/27 05:12:45;;;;;;;21.17;13.13;;;;;;;;;;5035322;28;20491;-78
2022/04/27 05:15:12;;;;;;;22.25;13.98;;;;;;;;;;5035417;28;20049;-77
2022/04/27 05:17:40;;;;;;;23.52;12.95;;;;;;;;;;5035757;28;20052;-77
2022/04/27 05:20:08;;;;;;;20.55;12.20;;;;;;;;;;5036046;28;20470;-78
2022/04/27 05:22:38;;;;;;;23.35;14.07;;;;;;;;;;5035816;28;20176;-77
2022/04/27 05:25:06;;;;;;;24.70;12.68;;;;;;;;;;5035821;28;20050;-78
2022/04/27 05:27:33;;;;;;;21.98;13.57;;;;;;;;;;5035101;28;20053;-77
2022/04/27 05:32:46;;;;;;;21.52;12.32;;;;;;;;;;5035527;28;20578;-78
2022/04/27 05:35:14;;;;;;;23.45;13.02;;;;;;;;;;5035555;28;20088;-78
2022/04/27 05:37:40;;;;;;;20.80;13.32;;;;;;;;;;5035158;28;20049;-77
2022/04/27 05:40:09;;;;;;;23.27;12.88;;;;;;;;;;5034587;28;20049;-77
2022/04/27 05:42:36;;;;;;;20.17;12.88;;;;;;;;;;5034706;28;20049;-77
2022/04/27 05:45:05;;;;;;;20.90;12.55;;;;;;;;;;5034796;28;20135;-77
2022/04/27 05:47:33;;;;;;;20.88;12.23;;;;;;;;;;5033915;28;20049;-77
2022/04/27 05:49:59;;;;;;;19.67;11.95;;;;;;;;;;5034592;28;20119;-76
2022/04/27 05:52:26;;;;;;;20.63;12.30;;;;;;;;;;5035425;28;20050;-77
2022/04/27 05:54:53;;;;;;;21.65;12.32;;;;;;;;;;5035128;28;20049;-77
2022/04/27 05:57:20;;;;;;;22.13;13.43;;;;;;;;;;5034138;28;20111;-76
2022/04/27 05:59:47;;;;;;;20.25;12.77;;;;;;;;;;5034017;28;20407;-76
2022/04/27 06:02:15;;;;;;;20.65;13.00;;;;;;;;;;5034054;28;20076;-77
2022/04/27 06:04:42;;;;;;;24.42;13.68;;;;;;;;;;5033964;28;20045;-77
2022/04/27 06:07:09;;;;;;;27.48;13.43;;;;;;;;;;5033764;28;20054;-77
2022/04/27 06:09:36;;;;;;;20.40;12.77;;;;;;;;;;5035724;28;20099;-78
2022/04/27 06:12:05;;;;;;;22.95;13.32;;;;;;;;;;5037261;28;20107;-78
2022/04/27 06:14:32;;;;;;;22.00;12.00;;;;;;;;;;5035752;28;20061;-78
2022/04/27 06:16:58;;;;;;;21.83;12.07;;;;;;;;;;5035972;28;20045;-78
2022/04/27 06:19:26;;;;;;;22.25;12.55;;;;;;;;;;5034867;28;20054;-78
2022/04/27 06:21:53;;;;;;;23.00;13.88;;;;;;;;;;5034377;28;20413;-77
2022/04/27 06:24:20;;;;;;;24.33;13.52;;;;;;;;;;5034337;28;20500;-77
2022/04/27 06:26:47;;;;;;;21.75;13.23;;;;;;;;;;5034226;28;20049;-77
2022/04/27 06:29:14;;;;;;;21.73;11.98;;;;;;;;;;5034520;28;20566;-77
2022/04/27 06:31:40;;;;;;;19.95;11.52;;;;;;;;;;5034002;28;20068;-76
2022/04/27 06:34:07;;;;;;;21.75;12.95;;;;;;;;;;5033783;28;20472;-76
2022/04/27 06:36:36;;;;;;;20.13;12.30;;;;;;;;;;5033410;28;20500;-77
2022/04/27 06:39:04;;;;;;;17.67;11.43;;;;;;;;;;5033421;28;20462;-77
2022/04/27 06:41:31;;;;;;;20.00;11.82;;;;;;;;;;5036075;28;20045;-76
2022/04/27 06:43:58;;;;;;;20.58;11.88;;;;;;;;;;5035028;28;20508;-77
2022/04/27 06:46:25;;;;;;;18.35;11.40;;;;;;;;;;5044208;28;20110;-77
2022/04/27 06:48:55;;;;;;;18.98;10.93;;;;;;;;;;5054474;28;20045;-78
2022/04/27 06:51:22;;;;;;;20.15;12.68;;;;;;;;;;5055069;28;20049;-78
2022/04/27 06:53:52;;;;;;;21.42;12.27;;;;;;;;;;5054356;28;20048;-77
2022/04/27 06:56:18;;;;;;;19.63;12.13;;;;;;;;;;5054069;28;20080;-77
2022/04/27 06:58:45;;;;;;;22.20;14.27;;;;;;;;;;5054877;28;20041;-77
2022/04/27 07:01:13;;;;;;;17.38;11.57;;;;;;;;;;5054406;28;20053;-77
2022/04/27 07:03:40;;;;;;;18.23;10.93;;;;;;;;;;5053820;28;20088;-78
2022/04/27 07:06:08;;;;;;;16.67;10.13;;;;;;;;;;5052835;28;20051;-78
2022/04/27 07:08:36;;;;;;;19.00;11.68;;;;;;;;;;5053312;28;20136;-78
2022/04/27 07:11:04;;;;;;;17.98;11.27;;;;;;;;;;5052965;28;20052;-76
2022/04/27 07:13:31;;;;;;;17.25;10.70;;;;;;;;;;5052932;28;20099;-78
2022/04/27 07:16:00;;;;;;;17.52;11.40;;;;;;;;;;5052992;28;20527;-78
2022/04/27 07:18:28;;;;;;;18.17;10.60;;;;;;;;;;5049200;28;20040;-78
2022/04/27 07:20:55;;;;;;;16.25;9.98;;;;;;;;;;5037192;28;20531;-78
2022/04/27 07:23:22;;;;;;;16.33;10.90;;;;;;;;;;5031140;28;20081;-79
2022/04/27 07:25:49;;;;;;;16.27;10.50;;;;;;;;;;5030803;28;20103;-77
2022/04/27 07:28:17;;;;;;;16.00;10.57;;;;;;;;;;5030719;28;20099;-78
2022/04/27 07:30:44;;;;;;;15.75;9.85;;;;;;;;;;5031312;28;20041;-78
2022/04/27 07:33:13;;;;;;;16.38;11.18;;;;;;;;;;5031025;28;20055;-77
2022/04/27 07:35:40;;;;;;;14.23;9.40;;;;;;;;;;5034304;28;20412;-78
2022/04/27 07:38:07;;;;;;;17.20;10.15;;;;;;;;;;5034895;28;20448;-79
2022/04/27 07:40:34;;;;;;;16.30;9.85;;;;;;;;;;5035867;28;20500;-79
2022/04/27 07:43:01;;;;;;;15.25;10.20;;;;;;;;;;5036838;28;20049;-77
2022/04/27 07:45:29;;;;;;;15.80;10.30;;;;;;;;;;5043289;28;20045;-78
2022/04/27 07:47:56;;;;;;;16.02;9.90;;;;;;;;;;5056530;28;20045;-78
2022/04/27 07:50:23;;;;;;;16.50;10.15;;;;;;;;;;5061033;28;20041;-78
2022/04/27 07:52:49;;;;;;;16.42;9.93;;;;;;;;;;5055015;28;20044;-78
2022/04/27 07:55:16;;;;;;;15.07;9.93;;;;;;;;;;5054139;28;20045;-78
2022/04/27 07:57:45;;;;;;;12.90;8.93;;;;;;;;;;5053691;28;20076;-78
2022/04/27 08:00:13;;;;;;;13.48;8.85;;;;;;;;;;5054232;28;20541;-78
2022/04/27 08:02:42;;;;;;;14.20;8.80;;;;;;;;;;5054820;28;20050;-78
2022/04/27 08:05:10;;;;;;;26.75;9.13;;;;;;;;;;5055946;28;20068;-79
2022/04/27 08:07:38;;;;;;;12.23;7.68;;;;;;;;;;5054596;28;20103;-78
2022/04/27 08:10:13;;;;;;;13.63;9.02;;;;;;;;;;5054250;28;20103;-79
2022/04/27 08:12:41;;;;;;;16.38;9.85;;;;;;;;;;5054907;28;20049;-79
2022/04/27 08:15:09;;;;;;;15.02;9.07;;;;;;;;;;5054237;28;20045;-78
2022/04/27 08:17:36;;;;;;;15.90;9.75;;;;;;;;;;5053976;28;20445;-78
2022/04/27 08:22:49;;;;;;;15.32;10.55;;;;;;;;;;5053153;28;20056;-77
2022/04/27 08:25:16;;;;;;;15.05;9.23;;;;;;;;;;5052518;28;20114;-77
2022/04/27 08:27:43;;;;;;;17.10;9.48;;;;;;;;;;5053316;28;20515;-78
2022/04/27 08:30:11;;;;;;;15.55;10.27;;;;;;;;;;5054120;28;20110;-77
2022/04/27 08:32:37;;;;;;;13.95;9.13;;;;;;;;;;5055560;28;20399;-78
2022/04/27 08:35:06;;;;;;;14.35;10.40;;;;;;;;;;5054870;28;20110;-79
2022/04/27 08:37:33;;;;;;;13.40;8.45;;;;;;;;;;5053868;28;20045;-77
2022/04/27 08:40:01;;;;;;;15.02;9.38;;;;;;;;;;5053703;28;20045;-78
2022/04/27 08:42:28;;;;;;;13.68;8.77;;;;;;;;;;5053928;28;20102;-78
2022/04/27 08:44:55;;;;;;;15.63;10.05;;;;;;;;;;5055147;28;20137;-79
2022/04/27 08:47:24;;;;;;;14.93;9.90;;;;;;;;;;5054570;28;20041;-79
2022/04/27 08:49:51;;;;;;;12.90;9.10;;;;;;;;;;5055157;28;20075;-79
2022/04/27 08:52:21;;;;;;;14.93;8.77;;;;;;;;;;5053571;28;20102;-78
2022/04/27 08:54:49;;;;;;;12.57;8.32;;;;;;;;;;5052979;28;20049;-78
2022/04/27 08:57:16;;;;;;;10.48;7.55;;;;;;;;;;5053770;28;20462;-78
2022/04/27 08:59:43;;;;;;;12.82;8.48;;;;;;;;;;5054147;28;20515;-78
2022/04/27 09:02:26;;;;;;;11.85;8.30;;;;;;;;;;5054338;28;20067;-78
2022/04/27 09:05:12;;;;;;;11.25;7.40;;;;;;;;;;5053802;28;20523;-78
2022/04/27 09:07:41;;;;;;;11.27;7.35;;;;;;;;;;5055423;28;20056;-79
2022/04/27 09:10:10;;;;;;;11.70;7.07;;;;;;;;;;5054663;28;20064;-78
2022/04/27 09:12:38;;;;;;;11.98;8.20;;;;;;;;;;5053850;28;20045;-77
2022/04/27 09:15:07;;;;;;;12.65;7.70;;;;;;;;;;5053463;28;20071;-79
2022/04/27 09:23:07;;;;;;;13.32;8.20;;;;;;;;;;5052748;28;20063;-77
2022/04/27 09:25:35;;;;;;;14.82;8.32;;;;;;;;;;5052915;28;20515;-77
2022/04/27 09:28:03;;;;;;;12.45;7.47;;;;;;;;;;5053632;28;20053;-75
2022/04/27 09:30:31;;;;;;;11.48;7.50;;;;;;;;;;5052881;28;20076;-76
2022/04/27 09:32:58;;;;;;;12.60;7.82;;;;;;;;;;5053194;28;20046;-77
2022/04/27 09:35:34;;;;;;;10.80;6.60;;;;;;;;;;5054088;28;20132;-77
2022/04/27 09:38:16;;;;;;;11.23;7.68;;;;;;;;;;5053686;28;20053;-77
2022/04/27 09:40:45;;;;;;;10.35;6.72;;;;;;;;;;5053004;28;20428;-77
2022/04/27 09:43:13;;;;;;;10.45;7.10;;;;;;;;;;5053195;28;20045;-77
2022/04/27 09:45:41;;;;;;;10.98;7.22;;;;;;;;;;5053214;28;20045;-77
2022/04/27 09:48:11;;;;;;;12.07;7.32;;;;;;;;;;5053266;28;20051;-77
2022/04/27 09:50:50;;;;;;;15.73;7.70;;;;;;;;;;5052987;28;20044;-77
2022/04/27 09:53:19;;;;;;;12.15;7.38;;;;;;;;;;5052569;28;20127;-77
2022/04/27 09:55:48;;;;;;;12.80;8.15;;;;;;;;;;5052406;28;20052;-78
2022/04/27 09:58:18;;;;;;;13.32;8.20;;;;;;;;;;5052585;28;20072;-77
2022/04/27 10:00:48;;;;;;;13.15;8.10;;;;;;;;;;5054691;28;20099;-77
2022/04/27 10:03:18;;;;;;;12.38;7.90;;;;;;;;;;5052494;28;20051;-76
2022/04/27 10:05:46;;;;;;;12.32;7.85;;;;;;;;;;5051944;28;20041;-77
2022/04/27 10:08:13;;;;;;;12.93;8.70;;;;;;;;;;5052157;28;20083;-77
2022/04/27 10:10:44;;;;;;;12.88;8.38;;;;;;;;;;5052910;28;20182;-76
2022/04/27 10:13:12;;;;;;;12.18;8.13;;;;;;;;;;5056403;28;20500;-77
2022/04/27 10:15:43;;;;;;;11.65;7.45;;;;;;;;;;5052429;28;20049;-77
2022/04/27 10:18:11;;;;;;;11.35;7.63;;;;;;;;;;5053761;28;20049;-77
2022/04/27 10:20:38;;;;;;;13.15;7.80;;;;;;;;;;5052671;28;20041;-77
2022/04/27 10:23:24;;;;;;;12.55;7.95;;;;;;;;;;5057347;28;20060;-78
2022/04/27 10:26:14;;;;;;;12.55;7.90;;;;;;;;;;5053171;28;20052;-78
2022/04/27 10:28:44;;;;;;;12.23;7.55;;;;;;;;;;5045639;28;20080;-78
2022/04/27 10:31:11;;;;;;;14.40;9.25;;;;;;;;;;5053389;28;20049;-77
2022/04/27 10:33:42;;;;;;;15.68;9.27;;;;;;;;;;5052116;28;20045;-78
2022/04/27 10:36:41;;;;;;;14.05;8.63;;;;;;;;;;5052692;28;20049;-77
2022/04/27 10:39:19;;;;;;;13.70;8.05;;;;;;;;;;5052377;28;20124;-78
2022/04/27 10:42:31;;;;;;;13.73;7.45;;;;;;;;;;5052015;28;20052;-78
2022/04/27 10:45:08;;;;;;;13.77;8.73;;;;;;;;;;5039916;28;20138;-77
2022/04/27 10:47:37;;;;;;;13.13;7.93;;;;;;;;;;5032828;28;20141;-78
2022/04/27 10:50:26;;;;;;;15.05;8.88;;;;;;;;;;5033264;28;20053;-77
2022/04/27 10:52:55;;;;;;;15.13;8.38;;;;;;;;;;5033187;28;20559;-77
2022/04/27 10:55:51;;;;;;;15.10;9.45;;;;;;;;;;5031603;28;20357;-77
2022/04/27 10:58:25;;;;;;;15.20;9.55;;;;;;;;;;5032574;28;20053;-77
2022/04/27 11:01:25;;;;;;;17.35;10.32;;;;;;;;;;5047184;28;20029;-77
2022/04/27 11:04:06;;;;;;;16.92;10.63;;;;;;;;;;5057430;28;20025;-77
2022/04/27 11:06:59;;;;;;;;;;;;;;;;;;5032823;28;20411;-77
2022/04/27 11:09:43;;;;;;;13.32;8.18;;;;;;;;;;5007210;28;20015;-76
2022/04/27 11:12:11;;;;;;;14.20;9.00;;;;;;;;;;5031627;28;20053;-77
2022/04/27 11:14:40;;;;;;;17.10;10.82;;;;;;;;;;5030946;28;20053;-78
2022/04/27 11:17:07;;;;;;;16.23;9.70;;;;;;;;;;5031314;28;20050;-77
2022/04/27 11:19:35;;;;;;;15.15;10.13;;;;;;;;;;5031103;28;20456;-78
2022/04/27 11:22:14;;;;;;;15.23;9.30;;;;;;;;;;5031058;28;20487;-76
2022/04/27 11:24:44;;;;;;;15.63;9.52;;;;;;;;;;5031015;28;20472;-77
2022/04/27 11:27:12;;;;;;;16.33;9.10;;;;;;;;;;5030887;28;20128;-77
2022/04/27 11:29:40;;;;;;;16.13;9.18;;;;;;;;;;5031145;28;20080;-76
2022/04/27 11:32:08;;;;;;;13.63;8.20;;;;;;;;;;5031097;28;20535;-77
2022/04/27 11:34:35;;;;;;;14.50;9.40;;;;;;;;;;5031297;28;20128;-78
2022/04/27 11:37:15;;;;;;;11.85;8.05;;;;;;;;;;5031254;28;20495;-76
2022/04/27 11:39:43;;;;;;;13.13;8.87;;;;;;;;;;5031719;28;20111;-77
2022/04/27 11:42:12;;;;;;;15.60;8.00;;;;;;;;;;5031057;28;20607;-76
2022/04/27 11:44:41;;;;;;;14.07;8.52;;;;;;;;;;5030326;28;20041;-77
2022/04/27 11:47:26;;;;;;;13.45;7.90;;;;;;;;;;5031320;28;20049;-78
2022/04/27 11:50:01;;;;;;;12.48;8.32;;;;;;;;;;5031297;28;20050;-78
2022/04/27 11:52:30;;;;;;;13.93;7.72;;;;;;;;;;5031481;28;20052;-79
2022/04/27 11:55:02;;;;;;;11.68;7.60;;;;;;;;;;5031470;28;20706;-78
2022/04/27 11:57:29;;;;;;;9.80;6.55;;;;;;;;;;5031054;28;20131;-76
2022/04/27 11:59:57;;;;;;;9.10;5.68;;;;;;;;;;5030979;28;20060;-77
2022/04/27 12:02:26;;;;;;;9.13;5.63;;;;;;;;;;5031056;28;20069;-77
2022/04/27 12:04:58;;;;;;;8.93;6.20;;;;;;;;;;5011080;28;20565;-77
2022/04/27 12:07:25;;;;;;;11.52;7.88;;;;;;;;;;5011135;28;20050;-77
2022/04/27 12:10:00;;;;;;;8.70;5.78;;;;;;;;;;5011274;28;20065;-77
2022/04/27 12:12:28;;;;;;;8.32;5.63;;;;;;;;;;5011537;28;20493;-77
2022/04/27 12:14:58;;;;;;;9.98;6.60;;;;;;;;;;5011061;28;20053;-77
2022/04/27 12:17:48;;;;;;;9.55;5.82;;;;;;;;;;5010951;28;20141;-78
2022/04/27 12:20:29;;;;;;;8.15;6.28;;;;;;;;;;5011309;28;20050;-76
2022/04/27 12:22:58;;;;;;;8.45;5.97;;;;;;;;;;5011239;28;20054;-78
2022/04/27 12:25:36;;;;;;;7.95;5.88;;;;;;;;;;5011111;28;20128;-78
2022/04/27 12:28:04;;;;;;;9.85;6.43;;;;;;;;;;5010688;28;20050;-76
2022/04/27 12:30:33;;;;;;;7.38;5.35;;;;;;;;;;5011140;28;20053;-77
2022/04/27 12:33:00;;;;;;;7.90;5.10;;;;;;;;;;5011046;28;20057;-77
2022/04/27 12:38:18;;;;;;;10.50;6.95;;;;;;;;;;5011084;28;20519;-76
2022/04/27 12:40:45;;;;;;;10.25;6.63;;;;;;;;;;5016463;28;20077;-78
2022/04/27 12:43:13;;;;;;;8.93;6.45;;;;;;;;;;5030642;28;20049;-76
2022/04/27 12:46:03;;;;;;;8.20;5.97;;;;;;;;;;5030448;28;20057;-77
2022/04/27 12:48:31;;;;;;;9.25;6.38;;;;;;;;;;5030437;28;20053;-78
2022/04/27 12:50:59;;;;;;;12.82;9.05;;;;;;;;;;5030537;28;20050;-76
2022/04/27 12:53:26;;;;;;;8.32;6.60;;;;;;;;;;5030481;28;20117;-76
2022/04/27 12:56:04;;;;;;;8.65;6.25;;;;;;;;;;5031189;28;20046;-76
2022/04/27 12:58:32;;;;;;;9.75;7.60;;;;;;;;;;5034612;28;20054;-76
2022/04/27 13:01:00;;;;;;;11.15;8.35;;;;;;;;;;5035197;28;20085;-76
2022/04/27 13:03:28;;;;;;;11.35;8.20;;;;;;;;;;5033231;28;20164;-76
2022/04/27 13:05:55;;;;;;;9.48;6.80;;;;;;;;;;5034304;28;20598;-76
2022/04/27 13:08:22;;;;;;;9.27;7.15;;;;;;;;;;5034184;28;20507;-75
2022/04/27 13:13:34;;;;;;;9.95;6.50;;;;;;;;;;5034087;28;20147;-76
2022/04/27 13:16:02;;;;;;;7.75;5.95;;;;;;;;;;5033685;28;20546;-76
2022/04/27 13:18:29;;;;;;;7.78;6.38;;;;;;;;;;5034245;28;20058;-77
2022/04/27 13:20:56;;;;;;;7.43;5.53;;;;;;;;;;5036196;28;20045;-77
2022/04/27 13:23:23;;;;;;;8.77;6.15;;;;;;;;;;5036282;28;20103;-77
2022/04/27 13:25:50;;;;;;;7.05;5.85;;;;;;;;;;5035746;28;20046;-75
2022/04/27 13:28:17;;;;;;;8.35;5.93;;;;;;;;;;5035864;28;20530;-76
2022/04/27 13:30:44;;;;;;;6.22;5.15;;;;;;;;;;5035154;28;20050;-76
2022/04/27 13:33:12;;;;;;;7.13;5.20;;;;;;;;;;5036077;28;20436;-76
2022/04/27 13:35:39;;;;;;;7.00;6.00;;;;;;;;;;5036398;28;20049;-78
2022/04/27 13:38:07;;;;;;;7.65;5.47;;;;;;;;;;5037911;28;20049;-77
2022/04/27 13:40:35;;;;;;;6.30;4.78;;;;;;;;;;5035778;28;20140;-76
2022/04/27 13:43:03;;;;;;;6.45;4.60;;;;;;;;;;5035122;28;20077;-77
2022/04/27 13:45:31;;;;;;;6.20;4.82;;;;;;;;;;5035040;28;20052;-76
2022/04/27 13:47:58;;;;;;;6.22;4.22;;;;;;;;;;5035010;28;20045;-78
2022/04/27 13:50:27;;;;;;;6.43;4.47;;;;;;;;;;5033586;28;20489;-77
2022/04/27 13:52:54;;;;;;;8.18;4.40;;;;;;;;;;5033952;28;20057;-76
2022/04/27 13:55:21;;;;;;;6.00;4.25;;;;;;;;;;5034025;28;20053;-78
2022/04/27 13:57:48;;;;;;;8.20;6.72;;;;;;;;;;5036446;28;20053;-78
2022/04/27 14:00:16;;;;;;;9.15;7.53;;;;;;;;;;5036082;28;20049;-78
2022/04/27 14:02:43;;;;;;;7.90;6.30;;;;;;;;;;5035968;28;20056;-78
2022/04/27 14:05:11;;;;;;;11.30;5.90;;;;;;;;;;5036126;28;20079;-78
2022/04/27 14:07:42;;;;;;;6.57;4.53;;;;;;;;;;5035578;28;20068;-78
2022/04/27 14:10:10;;;;;;;11.38;7.90;;;;;;;;;;5037759;28;20099;-79
2022/04/27 14:15:22;;;;;;;9.48;5.43;;;;;;;;;;5036876;28;20099;-78
2022/04/27 14:20:33;;;;;;;5.25;3.22;;;;;;;;;;5037784;28;20478;-79
2022/04/27 14:23:01;;;;;;;4.50;3.10;;;;;;;;;;5038067;28;20053;-80
2022/04/27 14:25:28;;;;;;;5.60;4.10;;;;;;;;;;5038103;28;20590;-79
2022/04/27 14:27:55;;;;;;;4.85;3.17;;;;;;;;;;5037671;28;20057;-79
2022/04/27 14:30:22;;;;;;;5.63;3.78;;;;;;;;;;5037531;28;20369;-78
2022/04/27 14:32:50;;;;;;;5.85;3.97;;;;;;;;;;5037423;28;20053;-77
2022/04/27 14:35:17;;;;;;;4.85;3.40;;;;;;;;;;5036001;28;20137;-79
2022/04/27 14:37:44;;;;;;;6.75;4.60;;;;;;;;;;5036508;28;20089;-78
2022/04/27 14:40:14;;;;;;;8.25;5.20;;;;;;;;;;5036496;28;20111;-78
2022/04/27 14:42:41;;;;;;;6.35;4.47;;;;;;;;;;5036431;28;20045;-78
2022/04/27 14:45:09;;;;;;;6.85;4.85;;;;;;;;;;5036589;28;20053;-78
2022/04/27 14:47:37;;;;;;;9.10;5.35;;;;;;;;;;5036644;28;20057;-77
2022/04/27 14:50:05;;;;;;;6.20;4.47;;;;;;;;;;5037350;28;20065;-78
2022/04/27 14:52:32;;;;;;;6.63;4.20;;;;;;;;;;5036481;28;20145;-77
2022/04/27 14:55:00;;;;;;;6.43;3.70;;;;;;;;;;5035895;28;20409;-79
2022/04/27 14:57:28;;;;;;;4.57;3.38;;;;;;;;;;5036616;28;20104;-77
2022/04/27 14:59:57;;;;;;;5.07;3.70;;;;;;;;;;5038162;28;20408;-79
2022/04/27 15:02:24;;;;;;;7.20;6.10;;;;;;;;;;5036494;28;20059;-78
2022/04/27 15:04:51;;;;;;;6.10;4.88;;;;;;;;;;5036387;28;20049;-79
2022/04/27 15:07:18;;;;;;;5.55;4.43;;;;;;;;;;5036725;28;20064;-78
2022/04/27 15:09:44;;;;;;;7.72;6.25;;;;;;;;;;5036732;28;20061;-78
2022/04/27 15:12:11;;;;;;;7.45;5.55;;;;;;;;;;5038027;28;20053;-78